createdAt,value
2019-04-29T00:01:35.467Z,15.20
2019-04-29T00:04:06.067Z,15.10
2019-04-29T00:06:36.731Z,15.00
2019-04-29T00:09:10.804Z,15.00
2019-04-29T00:11:41.040Z,15.00
2019-04-29T00:14:11.368Z,15.00
2019-04-29T00:16:53.757Z,15.00
2019-04-29T00:19:36.095Z,15.00
2019-04-29T00:22:05.584Z,14.90
2019-04-29T00:24:36.264Z,15.00
2019-04-29T00:27:06.746Z,15.00
2019-04-29T00:29:37.246Z,15.00
2019-04-29T00:32:08.216Z,15.00
2019-04-29T00:34:38.604Z,15.00
2019-04-29T00:37:16.444Z,15.00
2019-04-29T00:40:04.516Z,15.10
2019-04-29T00:42:53.955Z,15.00
2019-04-29T00:45:26.883Z,15.10
2019-04-29T00:47:57.313Z,15.10
2019-04-29T00:50:27.783Z,15.00
2019-04-29T00:52:58.211Z,15.00
2019-04-29T00:55:30.381Z,15.00
2019-04-29T00:58:01.054Z,15.00
2019-04-29T01:00:37.076Z,15.00
2019-04-29T01:03:08.063Z,15.10
2019-04-29T01:05:39.172Z,15.10
2019-04-29T01:08:09.654Z,15.10
2019-04-29T01:10:39.985Z,15.10
2019-04-29T01:13:10.583Z,15.00
2019-04-29T01:15:41.115Z,15.00
2019-04-29T01:18:11.721Z,14.90
2019-04-29T01:20:42.389Z,14.90
2019-04-29T01:23:13.014Z,14.90
2019-04-29T01:25:45.103Z,14.90
2019-04-29T01:28:24.322Z,14.90
2019-04-29T01:31:02.791Z,14.90
2019-04-29T01:33:33.343Z,14.90
2019-04-29T01:36:41.227Z,14.90
2019-04-29T01:39:13.657Z,14.90
2019-04-29T01:42:08.882Z,14.90
2019-04-29T01:44:42.616Z,14.80
2019-04-29T01:47:13.451Z,14.80
2019-04-29T01:49:43.953Z,14.80
2019-04-29T01:52:14.507Z,14.80
2019-04-29T01:54:44.934Z,14.80
2019-04-29T01:57:15.304Z,14.90
2019-04-29T01:59:45.882Z,14.90
2019-04-29T02:02:16.456Z,14.90
2019-04-29T02:04:46.879Z,14.90
2019-04-29T02:07:17.408Z,14.90
2019-04-29T02:10:08.806Z,14.90
2019-04-29T02:12:39.558Z,14.90
2019-04-29T02:15:10.304Z,14.90
2019-04-29T02:17:40.769Z,14.80
2019-04-29T02:20:13.183Z,14.80
2019-04-29T02:22:48.854Z,14.80
2019-04-29T02:25:24.409Z,14.80
2019-04-29T02:27:54.925Z,14.80
2019-04-29T02:30:45.378Z,14.70
2019-04-29T02:33:15.954Z,14.80
2019-04-29T02:35:46.535Z,14.90
2019-04-29T02:38:25.559Z,14.90
2019-04-29T02:41:07.176Z,14.90
2019-04-29T02:43:39.143Z,14.90
2019-04-29T02:46:09.775Z,14.80
2019-04-29T02:48:41.328Z,14.80
2019-04-29T02:51:13.688Z,14.80
2019-04-29T02:53:44.184Z,14.90
2019-04-29T02:56:14.747Z,14.80
2019-04-29T02:58:53.030Z,14.70
2019-04-29T03:01:40.997Z,14.80
2019-04-29T03:04:20.127Z,14.80
2019-04-29T03:06:51.117Z,14.80
2019-04-29T03:09:21.501Z,14.80
2019-04-29T03:11:52.106Z,14.80
2019-04-29T03:14:22.898Z,14.80
2019-04-29T03:16:53.373Z,14.80
2019-04-29T03:19:29.639Z,14.80
2019-04-29T03:22:02.706Z,14.70
2019-04-29T03:24:33.735Z,14.70
2019-04-29T03:27:04.126Z,14.70
2019-04-29T03:29:34.688Z,14.70
2019-04-29T03:32:05.221Z,14.70
2019-04-29T03:34:35.885Z,14.70
2019-04-29T03:37:06.304Z,14.70
2019-04-29T03:39:36.663Z,14.80
2019-04-29T03:42:07.606Z,14.80
2019-04-29T03:44:38.232Z,14.70
2019-04-29T03:47:08.512Z,14.70
2019-04-29T03:49:39.100Z,14.60
2019-04-29T03:52:09.936Z,14.60
2019-04-29T03:54:41.291Z,14.60
2019-04-29T03:57:13.279Z,14.60
2019-04-29T03:59:45.700Z,14.60
2019-04-29T04:02:41.425Z,14.60
2019-04-29T04:05:39.189Z,14.60
2019-04-29T04:08:22.847Z,14.60
2019-04-29T04:10:53.032Z,14.60
2019-04-29T04:13:23.422Z,14.60
2019-04-29T04:15:54.165Z,14.60
2019-04-29T04:18:28.891Z,14.60
2019-04-29T04:20:59.365Z,14.60
2019-04-29T04:23:29.527Z,14.60
2019-04-29T04:25:59.583Z,14.70
2019-04-29T04:28:29.784Z,14.60
2019-04-29T04:31:00.167Z,14.70
2019-04-29T04:33:30.313Z,14.70
2019-04-29T04:36:01.218Z,14.70
2019-04-29T04:38:31.891Z,14.70
2019-04-29T04:41:06.143Z,14.70
2019-04-29T04:43:36.535Z,14.70
2019-04-29T04:46:06.608Z,14.70
2019-04-29T04:48:37.158Z,14.70
2019-04-29T04:51:07.600Z,14.70
2019-04-29T04:53:38.114Z,14.70
2019-04-29T04:56:08.578Z,14.60
2019-04-29T04:58:38.925Z,14.70
2019-04-29T05:01:10.189Z,14.70
2019-04-29T05:03:49.394Z,14.70
2019-04-29T05:06:19.943Z,14.70
2019-04-29T05:08:50.685Z,14.70
2019-04-29T05:11:23.984Z,14.70
2019-04-29T05:13:55.990Z,14.70
2019-04-29T05:16:26.457Z,14.70
2019-04-29T05:18:57.200Z,14.70
2019-04-29T05:21:27.848Z,14.70
2019-04-29T05:23:58.620Z,14.80
2019-04-29T05:26:29.236Z,14.80
2019-04-29T05:28:59.997Z,14.80
2019-04-29T05:31:30.378Z,14.80
2019-04-29T05:34:00.973Z,14.90
2019-04-29T05:36:40.717Z,14.90
2019-04-29T05:39:14.756Z,14.90
2019-04-29T05:41:45.482Z,14.90
2019-04-29T05:44:31.305Z,14.90
2019-04-29T05:47:06.109Z,14.90
2019-04-29T05:49:48.851Z,15.00
2019-04-29T05:52:34.551Z,15.00
2019-04-29T05:55:03.294Z,15.00
2019-04-29T05:57:34.101Z,15.00
2019-04-29T06:00:06.462Z,15.00
2019-04-29T06:02:38.782Z,15.00
2019-04-29T06:05:09.990Z,15.10
2019-04-29T06:07:40.613Z,15.10
2019-04-29T06:10:13.761Z,15.10
2019-04-29T06:12:44.700Z,15.10
2019-04-29T06:15:15.456Z,15.10
2019-04-29T06:17:46.347Z,15.20
2019-04-29T06:20:20.555Z,15.20
2019-04-29T06:22:49.236Z,15.20
2019-04-29T06:25:19.802Z,15.30
2019-04-29T06:27:50.282Z,15.20
2019-04-29T06:30:20.828Z,15.20
2019-04-29T06:32:51.732Z,15.20
2019-04-29T06:35:22.275Z,15.30
2019-04-29T06:38:20.264Z,15.40
2019-04-29T06:40:52.920Z,15.40
2019-04-29T06:43:24.496Z,15.40
2019-04-29T06:45:55.080Z,15.40
2019-04-29T06:51:44.757Z,15.50
2019-04-29T06:54:15.127Z,15.50
2019-04-29T06:56:45.461Z,15.50
2019-04-29T06:59:15.626Z,15.50
2019-04-29T07:01:45.993Z,15.60
2019-04-29T07:04:17.369Z,15.60
2019-04-29T07:06:57.193Z,15.60
2019-04-29T07:09:19.384Z,15.60
2019-04-29T07:11:50.281Z,15.60
2019-04-29T07:14:22.060Z,15.60
2019-04-29T07:16:52.262Z,15.60
2019-04-29T07:19:26.380Z,15.60
2019-04-29T07:21:56.470Z,15.60
2019-04-29T07:24:26.014Z,15.60
2019-04-29T07:26:57.934Z,15.60
2019-04-29T07:29:30.777Z,15.60
2019-04-29T07:32:04.679Z,15.60
2019-04-29T07:34:33.887Z,15.60
2019-04-29T07:37:05.473Z,15.60
2019-04-29T07:39:36.189Z,15.60
2019-04-29T07:42:06.577Z,15.60
2019-04-29T07:44:54.490Z,15.70
2019-04-29T07:47:24.971Z,15.70
2019-04-29T07:49:57.524Z,15.80
2019-04-29T07:52:27.989Z,15.80
2019-04-29T07:54:58.265Z,15.70
2019-04-29T07:57:28.830Z,15.80
2019-04-29T07:59:59.202Z,15.80
2019-04-29T08:02:29.747Z,15.80
2019-04-29T08:05:00.267Z,15.90
2019-04-29T08:07:30.970Z,15.90
2019-04-29T08:10:04.014Z,16.00
2019-04-29T08:12:36.253Z,16.00
2019-04-29T08:15:08.079Z,16.00
2019-04-29T08:17:39.508Z,16.00
2019-04-29T08:20:10.107Z,16.00
2019-04-29T08:22:40.632Z,16.10
2019-04-29T08:25:11.317Z,16.10
2019-04-29T08:27:43.721Z,16.20
2019-04-29T08:30:14.208Z,16.20
2019-04-29T08:32:44.820Z,16.30
2019-04-29T08:35:15.694Z,16.30
2019-04-29T08:37:46.715Z,16.30
2019-04-29T08:40:17.410Z,16.40
2019-04-29T08:42:53.917Z,16.50
2019-04-29T08:45:42.010Z,16.50
2019-04-29T08:48:12.994Z,16.60
2019-04-29T08:50:43.429Z,16.70
2019-04-29T08:53:13.629Z,16.70
2019-04-29T08:55:44.055Z,16.80
2019-04-29T08:58:14.337Z,16.90
2019-04-29T09:00:45.633Z,17.00
2019-04-29T09:03:18.749Z,17.10
2019-04-29T09:06:04.133Z,17.20
2019-04-29T09:08:20.603Z,17.20
2019-04-29T09:10:51.364Z,17.20
2019-04-29T09:13:22.105Z,17.30
2019-04-29T09:15:52.654Z,17.30
2019-04-29T09:18:23.186Z,17.30
2019-04-29T09:20:53.599Z,17.30
2019-04-29T09:23:26.783Z,17.30
2019-04-29T09:26:18.898Z,17.40
2019-04-29T09:28:49.913Z,17.40
2019-04-29T09:31:20.704Z,17.50
2019-04-29T09:34:06.020Z,17.60
2019-04-29T09:36:28.334Z,17.60
2019-04-29T09:38:59.495Z,17.60
2019-04-29T09:41:46.063Z,17.70
2019-04-29T09:44:40.347Z,17.80
2019-04-29T09:47:11.189Z,18.10
2019-04-29T09:49:41.647Z,18.40
2019-04-29T09:52:12.307Z,18.50
2019-04-29T09:54:43.120Z,18.70
2019-04-29T09:57:13.486Z,18.80
2019-04-29T09:59:50.231Z,18.80
2019-04-29T10:02:36.016Z,18.80
2019-04-29T10:05:26.336Z,18.90
2019-04-29T10:07:56.877Z,18.90
2019-04-29T10:10:27.904Z,18.90
2019-04-29T10:12:58.487Z,19.00
2019-04-29T10:15:55.807Z,19.00
2019-04-29T10:18:49.241Z,19.10
2019-04-29T10:21:21.410Z,19.20
2019-04-29T10:24:01.487Z,19.20
2019-04-29T10:26:31.870Z,19.10
2019-04-29T10:29:08.965Z,19.00
2019-04-29T10:31:39.477Z,18.90
2019-04-29T10:34:11.251Z,18.90
2019-04-29T10:36:41.659Z,18.90
2019-04-29T10:39:47.257Z,19.00
2019-04-29T10:42:25.318Z,19.10
2019-04-29T10:45:13.885Z,19.40
2019-04-29T10:48:10.635Z,19.60
2019-04-29T10:50:47.176Z,19.60
2019-04-29T10:53:15.604Z,19.50
2019-04-29T10:55:46.909Z,19.30
2019-04-29T10:58:21.870Z,19.30
2019-04-29T11:02:01.382Z,19.30
2019-04-29T11:04:31.767Z,19.30
2019-04-29T11:07:14.440Z,19.40
2019-04-29T11:09:52.645Z,19.40
2019-04-29T11:12:23.410Z,19.40
2019-04-29T11:14:53.876Z,19.50
2019-04-29T11:17:26.356Z,19.30
2019-04-29T11:19:57.006Z,19.40
2019-04-29T11:22:34.003Z,19.30
2019-04-29T11:25:23.190Z,19.30
2019-04-29T11:27:56.236Z,19.20
2019-04-29T11:30:28.542Z,19.10
2019-04-29T11:33:21.293Z,19.20
2019-04-29T11:36:04.011Z,19.10
2019-04-29T11:38:38.208Z,19.10
2019-04-29T11:41:06.579Z,19.20
2019-04-29T11:43:39.524Z,19.40
2019-04-29T11:46:14.511Z,19.50
2019-04-29T11:48:42.654Z,19.40
2019-04-29T11:51:28.187Z,19.30
2019-04-29T11:53:58.678Z,19.30
2019-04-29T11:56:29.560Z,19.20
2019-04-29T11:59:12.451Z,19.30
2019-04-29T12:01:53.835Z,19.40
2019-04-29T12:04:35.145Z,19.40
2019-04-29T12:07:06.232Z,19.40
2019-04-29T12:09:39.690Z,19.70
2019-04-29T12:12:12.890Z,19.90
2019-04-29T12:14:54.078Z,20.00
2019-04-29T12:17:31.909Z,20.00
2019-04-29T12:20:10.560Z,19.90
2019-04-29T12:22:48.586Z,19.90
2019-04-29T12:25:15.005Z,19.90
2019-04-29T12:27:45.909Z,19.90
2019-04-29T12:30:18.468Z,19.90
2019-04-29T12:33:04.117Z,19.80
2019-04-29T12:35:51.105Z,19.90
2019-04-29T12:38:39.630Z,19.80
2019-04-29T12:41:25.471Z,19.80
2019-04-29T12:43:59.560Z,19.80
2019-04-29T12:46:35.817Z,19.90
2019-04-29T12:49:08.656Z,20.00
2019-04-29T12:51:37.893Z,20.10
2019-04-29T12:54:08.582Z,20.10
2019-04-29T12:56:43.163Z,19.90
2019-04-29T12:59:12.545Z,19.70
2019-04-29T13:02:08.481Z,19.40
2019-04-29T13:05:00.639Z,19.10
2019-04-29T13:07:42.939Z,19.10
2019-04-29T13:10:30.642Z,19.20
2019-04-29T13:13:00.702Z,19.20
2019-04-29T13:16:05.103Z,19.30
2019-04-29T13:18:40.521Z,19.30
2019-04-29T13:21:11.033Z,19.50
2019-04-29T13:23:59.057Z,19.80
2019-04-29T13:26:27.101Z,19.90
2019-04-29T13:28:59.010Z,20.00
2019-04-29T13:31:20.270Z,19.90
2019-04-29T13:33:52.898Z,19.90
2019-04-29T13:36:25.927Z,19.90
2019-04-29T13:38:55.675Z,20.10
2019-04-29T13:41:26.247Z,20.30
2019-04-29T13:44:05.020Z,20.50
2019-04-29T13:46:56.308Z,20.50
2019-04-29T13:49:35.209Z,20.40
2019-04-29T13:52:05.873Z,20.10
2019-04-29T13:54:37.345Z,20.20
2019-04-29T13:57:15.323Z,20.40
2019-04-29T13:59:59.400Z,20.40
2019-04-29T14:02:36.827Z,20.40
2019-04-29T14:05:07.977Z,20.40
2019-04-29T14:07:39.571Z,20.30
2019-04-29T14:10:14.823Z,20.20
2019-04-29T14:12:48.503Z,20.10
2019-04-29T14:15:16.310Z,20.10
2019-04-29T14:17:46.941Z,19.90
2019-04-29T14:20:17.942Z,19.90
2019-04-29T14:22:49.440Z,20.00
2019-04-29T14:25:20.164Z,19.90
2019-04-29T14:27:50.599Z,19.70
2019-04-29T14:30:21.877Z,19.60
2019-04-29T14:32:55.821Z,19.60
2019-04-29T14:35:54.124Z,19.40
2019-04-29T14:38:24.849Z,19.40
2019-04-29T14:40:55.520Z,19.30
2019-04-29T14:43:54.990Z,19.40
2019-04-29T14:46:48.670Z,19.30
2019-04-29T14:49:35.414Z,19.20
2019-04-29T14:52:08.312Z,19.10
2019-04-29T14:54:36.953Z,19.10
2019-04-29T14:57:09.287Z,19.20
2019-04-29T14:59:39.920Z,19.10
2019-04-29T15:02:22.616Z,19.30
2019-04-29T15:04:53.513Z,19.50
2019-04-29T15:07:24.075Z,19.70
2019-04-29T15:09:58.389Z,19.80
2019-04-29T15:12:51.900Z,19.90
2019-04-29T15:15:38.504Z,20.00
2019-04-29T15:18:25.590Z,19.80
2019-04-29T15:21:11.594Z,19.50
2019-04-29T15:23:42.076Z,19.60
2019-04-29T15:26:12.766Z,19.60
2019-04-29T15:28:52.754Z,19.50
2019-04-29T15:31:24.045Z,19.40
2019-04-29T15:33:54.649Z,19.30
2019-04-29T15:36:25.612Z,19.10
2019-04-29T15:39:08.707Z,19.00
2019-04-29T15:41:31.141Z,19.00
2019-04-29T15:44:07.680Z,19.00
2019-04-29T15:46:45.230Z,19.10
2019-04-29T15:49:05.322Z,19.10
2019-04-29T15:51:38.719Z,19.10
2019-04-29T15:54:14.432Z,19.30
2019-04-29T15:56:41.870Z,19.60
2019-04-29T15:59:12.767Z,19.70
2019-04-29T16:01:43.720Z,19.70
2019-04-29T16:04:21.009Z,19.50
2019-04-29T16:07:03.736Z,19.30
2019-04-29T16:12:27.016Z,18.90
2019-04-29T16:14:57.704Z,18.60
2019-04-29T16:17:31.878Z,18.40
2019-04-29T16:20:00.822Z,18.30
2019-04-29T16:22:31.240Z,18.00
2019-04-29T16:25:04.937Z,18.00
2019-04-29T16:27:34.168Z,18.10
2019-04-29T16:30:04.920Z,18.00
2019-04-29T16:32:40.396Z,17.90
2019-04-29T16:35:11.754Z,17.70
2019-04-29T16:37:42.193Z,17.80
2019-04-29T16:40:12.766Z,17.70
2019-04-29T16:43:05.531Z,17.70
2019-04-29T16:45:58.000Z,17.80
2019-04-29T16:48:28.629Z,17.80
2019-04-29T16:50:59.235Z,17.80
2019-04-29T16:53:29.686Z,17.80
2019-04-29T16:56:00.061Z,17.80
2019-04-29T16:58:30.535Z,17.70
2019-04-29T17:01:01.023Z,17.50
2019-04-29T17:03:31.522Z,17.50
2019-04-29T17:06:02.172Z,17.40
2019-04-29T17:09:02.940Z,17.40
2019-04-29T17:11:29.791Z,17.40
2019-04-29T17:16:32.396Z,17.30
2019-04-29T17:19:03.090Z,17.20
2019-04-29T17:21:33.926Z,17.20
2019-04-29T17:24:04.741Z,17.10
2019-04-29T17:26:49.452Z,17.10
2019-04-29T17:29:49.363Z,17.00
2019-04-29T17:32:42.931Z,17.00
2019-04-29T17:35:07.313Z,16.90
2019-04-29T17:35:14.558Z,17.30
2019-04-29T17:35:17.594Z,19.10
2019-04-29T17:37:39.780Z,16.90
2019-04-29T17:40:13.006Z,16.80
2019-04-29T17:42:45.498Z,16.70
2019-04-29T17:45:30.590Z,16.70
2019-04-29T17:48:18.200Z,16.70
2019-04-29T17:50:53.334Z,16.70
2019-04-29T17:53:32.659Z,16.70
2019-04-29T17:56:20.170Z,16.60
2019-04-29T17:58:58.406Z,16.70
2019-04-29T18:01:47.979Z,16.70
2019-04-29T18:04:36.190Z,16.70
2019-04-29T18:07:40.522Z,16.70
2019-04-29T18:10:24.330Z,16.60
2019-04-29T18:12:54.970Z,16.60
2019-04-29T18:15:40.378Z,16.70
2019-04-29T18:18:07.380Z,16.70
2019-04-29T18:21:03.281Z,16.70
2019-04-29T18:24:07.998Z,16.70
2019-04-29T18:26:47.992Z,16.70
2019-04-29T18:29:16.683Z,16.70
2019-04-29T18:31:48.182Z,16.70
2019-04-29T18:34:19.994Z,16.70
2019-04-29T18:36:54.564Z,16.60
2019-04-29T18:39:28.581Z,16.60
2019-04-29T18:41:58.800Z,16.60
2019-04-29T18:44:30.364Z,16.60
2019-04-29T18:47:01.030Z,16.50
2019-04-29T18:49:31.428Z,16.50
2019-04-29T18:52:03.767Z,16.40
2019-04-29T18:54:35.747Z,16.40
2019-04-29T18:57:06.393Z,16.30
2019-04-29T18:59:37.676Z,16.30
2019-04-29T19:02:09.506Z,16.30
2019-04-29T19:04:53.519Z,16.20
2019-04-29T19:07:53.138Z,16.20
2019-04-29T19:10:18.588Z,16.20
2019-04-29T19:12:59.553Z,16.20
2019-04-29T19:15:21.588Z,16.20
2019-04-29T19:17:59.150Z,16.10
2019-04-29T19:20:25.353Z,16.10
2019-04-29T19:23:05.687Z,16.10
2019-04-29T19:25:28.456Z,16.10
2019-04-29T19:28:11.502Z,16.00
2019-04-29T19:30:31.341Z,16.00
2019-04-29T19:33:02.017Z,16.00
2019-04-29T19:35:38.564Z,16.00
2019-04-29T19:38:12.357Z,16.00
2019-04-29T19:40:42.532Z,16.00
2019-04-29T19:43:17.371Z,15.90
2019-04-29T19:45:48.992Z,16.00
2019-04-29T19:48:22.570Z,15.90
2019-04-29T19:51:13.867Z,16.00
2019-04-29T19:53:42.173Z,16.00
2019-04-29T19:56:12.590Z,15.90
2019-04-29T19:58:42.522Z,15.90
2019-04-29T20:01:26.291Z,15.90
2019-04-29T20:04:01.195Z,15.90
2019-04-29T20:06:33.638Z,15.90
2019-04-29T20:09:16.514Z,15.90
2019-04-29T20:11:41.163Z,15.90
2019-04-29T20:14:19.006Z,15.90
2019-04-29T20:17:09.665Z,15.90
2019-04-29T20:19:41.797Z,15.90
2019-04-29T20:22:13.161Z,15.80
2019-04-29T20:24:49.762Z,15.80
2019-04-29T20:27:15.948Z,15.70
2019-04-29T20:29:46.547Z,15.70
2019-04-29T20:32:17.526Z,15.60
2019-04-29T20:34:48.080Z,15.60
2019-04-29T20:37:19.909Z,15.60
2019-04-29T20:39:56.173Z,15.70
2019-04-29T20:42:26.004Z,15.70
2019-04-29T20:44:56.802Z,15.70
2019-04-29T20:47:37.507Z,15.70
2019-04-29T20:49:59.700Z,15.70
2019-04-29T20:52:37.572Z,15.70
2019-04-29T20:55:09.304Z,15.70
2019-04-29T20:57:40.120Z,15.70
2019-04-29T21:00:11.912Z,15.60
2019-04-29T21:02:42.904Z,15.70
2019-04-29T21:05:22.316Z,15.70
2019-04-29T21:07:45.948Z,15.70
2019-04-29T21:10:16.630Z,15.70
2019-04-29T21:12:59.515Z,15.70
2019-04-29T21:15:36.201Z,15.70
2019-04-29T21:18:10.331Z,15.80
2019-04-29T21:20:39.262Z,15.80
2019-04-29T21:23:09.649Z,15.70
2019-04-29T21:25:40.374Z,15.70
2019-04-29T21:28:12.092Z,15.80
2019-04-29T21:30:42.850Z,15.70
2019-04-29T21:33:19.994Z,15.80
2019-04-29T21:35:56.536Z,15.80
2019-04-29T21:38:48.572Z,15.80
2019-04-29T21:41:27.453Z,15.80
2019-04-29T21:44:01.711Z,15.80
2019-04-29T21:46:32.117Z,15.90
2019-04-29T21:49:06.764Z,15.90
2019-04-29T21:51:35.489Z,15.90
2019-04-29T21:54:09.644Z,15.90
2019-04-29T21:56:39.787Z,15.90
2019-04-29T21:59:12.269Z,15.90
2019-04-29T22:01:51.693Z,15.90
2019-04-29T22:04:22.191Z,15.90
2019-04-29T22:06:52.695Z,15.90
2019-04-29T22:09:35.299Z,15.90
2019-04-29T22:11:57.046Z,15.90
2019-04-29T22:14:28.746Z,15.90
2019-04-29T22:16:59.282Z,15.90
2019-04-29T22:19:29.921Z,15.90
2019-04-29T22:22:01.676Z,15.90
2019-04-29T22:24:32.760Z,15.90
2019-04-29T22:27:05.205Z,15.90
2019-04-29T22:29:37.462Z,15.90
2019-04-29T22:32:14.472Z,15.90
2019-04-29T22:34:40.502Z,15.90
2019-04-29T22:37:10.871Z,15.90
2019-04-29T22:39:41.473Z,15.90
2019-04-29T22:42:31.707Z,15.90
2019-04-29T22:45:02.729Z,15.90
2019-04-29T22:47:33.189Z,15.90
2019-04-29T22:50:04.511Z,15.90
2019-04-29T22:52:36.844Z,15.90
2019-04-29T22:55:08.048Z,15.90
2019-04-29T22:57:38.767Z,15.90
2019-04-29T23:00:11.232Z,15.80
2019-04-29T23:02:41.984Z,15.80
2019-04-29T23:05:13.062Z,15.80
2019-04-29T23:07:45.520Z,15.80
2019-04-29T23:10:18.121Z,15.80
2019-04-29T23:12:49.219Z,15.80
2019-04-29T23:15:23.575Z,15.80
2019-04-29T23:17:52.164Z,15.80
2019-04-29T23:21:04.021Z,15.70
2019-04-29T23:23:38.126Z,15.70
2019-04-29T23:26:08.823Z,15.70
2019-04-29T23:28:39.406Z,15.70
2019-04-29T23:31:09.834Z,15.70
2019-04-29T23:33:40.520Z,15.70
2019-04-29T23:36:14.247Z,15.60
2019-04-29T23:38:44.114Z,15.60
2019-04-29T23:41:15.339Z,15.60
2019-04-29T23:43:45.979Z,15.60
2019-04-29T23:46:16.513Z,15.60
2019-04-29T23:48:47.496Z,15.60
2019-04-29T23:51:18.156Z,15.60
2019-04-29T23:53:48.770Z,15.60
2019-04-29T23:56:20.837Z,15.50
2019-04-29T23:58:59.328Z,15.60
